sensor_id;sensor_type;location;lat;lon;timestamp;temperature;humidity
43049;DHT22;28673;44.412;11.918;2024-03-02T00:01:11;11.70;99.90
43049;DHT22;28673;44.412;11.918;2024-03-02T00:03:37;11.60;99.90
43049;DHT22;28673;44.412;11.918;2024-03-02T00:06:04;11.70;99.90
43049;DHT22;28673;44.412;11.918;2024-03-02T00:08:30;11.70;99.90
43049;DHT22;28673;44.412;11.918;2024-03-02T00:11:00;11.60;99.90
43049;DHT22;28673;44.412;11.918;2024-03-02T00:13:29;11.70;99.90
43049;DHT22;28673;44.412;11.918;2024-03-02T00:15:57;11.70;99.90
43049;DHT22;28673;44.412;11.918;2024-03-02T00:18:30;11.70;99.90
43049;DHT22;28673;44.412;11.918;2024-03-02T00:20:57;11.70;99.90
43049;DHT22;28673;44.412;11.918;2024-03-02T00:23:23;11.70;99.90
43049;DHT22;28673;44.412;11.918;2024-03-02T00:25:51;11.70;99.90
43049;DHT22;28673;44.412;11.918;2024-03-02T00:28:28;11.70;99.90
43049;DHT22;28673;44.412;11.918;2024-03-02T00:30:55;11.70;99.90
43049;DHT22;28673;44.412;11.918;2024-03-02T00:33:22;11.70;99.90
43049;DHT22;28673;44.412;11.918;2024-03-02T00:35:49;11.70;99.90
43049;DHT22;28673;44.412;11.918;2024-03-02T00:38:15;11.70;99.90
43049;DHT22;28673;44.412;11.918;2024-03-02T00:40:45;11.70;99.90
43049;DHT22;28673;44.412;11.918;2024-03-02T00:45:55;11.70;99.90
43049;DHT22;28673;44.412;11.918;2024-03-02T00:48:21;11.70;99.90
43049;DHT22;28673;44.412;11.918;2024-03-02T00:50:51;11.70;99.90
43049;DHT22;28673;44.412;11.918;2024-03-02T00:53:22;11.70;99.90
43049;DHT22;28673;44.412;11.918;2024-03-02T00:55:50;11.70;99.90
43049;DHT22;28673;44.412;11.918;2024-03-02T00:58:16;11.70;99.90
43049;DHT22;28673;44.412;11.918;2024-03-02T01:00:41;11.70;99.90
43049;DHT22;28673;44.412;11.918;2024-03-02T01:03:07;11.70;99.90
43049;DHT22;28673;44.412;11.918;2024-03-02T01:05:33;11.70;99.90
43049;DHT22;28673;44.412;11.918;2024-03-02T01:07:59;11.70;99.90
43049;DHT22;28673;44.412;11.918;2024-03-02T01:10:25;11.70;99.90
43049;DHT22;28673;44.412;11.918;2024-03-02T01:12:53;11.70;99.90
43049;DHT22;28673;44.412;11.918;2024-03-02T01:15:19;11.70;99.90
43049;DHT22;28673;44.412;11.918;2024-03-02T01:17:45;11.70;99.90
43049;DHT22;28673;44.412;11.918;2024-03-02T01:20:11;11.70;99.90
43049;DHT22;28673;44.412;11.918;2024-03-02T01:22:37;11.70;99.90
43049;DHT22;28673;44.412;11.918;2024-03-02T01:25:03;11.70;99.90
43049;DHT22;28673;44.412;11.918;2024-03-02T01:27:29;11.70;99.90
43049;DHT22;28673;44.412;11.918;2024-03-02T01:29:55;11.70;99.90
43049;DHT22;28673;44.412;11.918;2024-03-02T01:32:20;11.70;99.90
43049;DHT22;28673;44.412;11.918;2024-03-02T01:34:47;11.70;99.90
43049;DHT22;28673;44.412;11.918;2024-03-02T01:37:13;11.70;99.90
43049;DHT22;28673;44.412;11.918;2024-03-02T01:39:39;11.70;99.90
43049;DHT22;28673;44.412;11.918;2024-03-02T01:42:05;11.70;99.90
43049;DHT22;28673;44.412;11.918;2024-03-02T01:44:30;11.60;99.90
43049;DHT22;28673;44.412;11.918;2024-03-02T01:46:56;11.60;99.90
43049;DHT22;28673;44.412;11.918;2024-03-02T01:49:22;11.60;99.90
43049;DHT22;28673;44.412;11.918;2024-03-02T01:51:48;11.60;99.90
43049;DHT22;28673;44.412;11.918;2024-03-02T01:54:14;11.60;99.90
43049;DHT22;28673;44.412;11.918;2024-03-02T01:56:39;11.60;99.90
43049;DHT22;28673;44.412;11.918;2024-03-02T01:59:06;11.60;99.90
43049;DHT22;28673;44.412;11.918;2024-03-02T02:01:31;11.60;99.90
43049;DHT22;28673;44.412;11.918;2024-03-02T02:03:57;11.50;99.90
43049;DHT22;28673;44.412;11.918;2024-03-02T02:06:23;11.50;99.90
43049;DHT22;28673;44.412;11.918;2024-03-02T02:08:48;11.50;99.90
43049;DHT22;28673;44.412;11.918;2024-03-02T02:11:15;11.60;99.90
43049;DHT22;28673;44.412;11.918;2024-03-02T02:13:41;11.60;99.90
43049;DHT22;28673;44.412;11.918;2024-03-02T02:16:08;11.60;99.90
43049;DHT22;28673;44.412;11.918;2024-03-02T02:18:34;11.60;99.90
43049;DHT22;28673;44.412;11.918;2024-03-02T02:21:00;11.60;99.90
43049;DHT22;28673;44.412;11.918;2024-03-02T02:23:26;11.60;99.90
43049;DHT22;28673;44.412;11.918;2024-03-02T02:25:52;11.50;99.90
43049;DHT22;28673;44.412;11.918;2024-03-02T02:28:17;11.50;99.90
43049;DHT22;28673;44.412;11.918;2024-03-02T02:30:43;11.60;99.90
43049;DHT22;28673;44.412;11.918;2024-03-02T02:33:09;11.60;99.90
43049;DHT22;28673;44.412;11.918;2024-03-02T02:35:35;11.60;99.90
43049;DHT22;28673;44.412;11.918;2024-03-02T02:38:01;11.50;99.90
43049;DHT22;28673;44.412;11.918;2024-03-02T02:40:27;11.50;99.90
43049;DHT22;28673;44.412;11.918;2024-03-02T02:42:58;11.50;99.90
43049;DHT22;28673;44.412;11.918;2024-03-02T02:45:25;11.50;99.90
43049;DHT22;28673;44.412;11.918;2024-03-02T02:47:50;11.50;99.90
43049;DHT22;28673;44.412;11.918;2024-03-02T02:50:16;11.50;99.90
43049;DHT22;28673;44.412;11.918;2024-03-02T02:52:43;11.50;99.90
43049;DHT22;28673;44.412;11.918;2024-03-02T02:55:12;11.50;99.90
43049;DHT22;28673;44.412;11.918;2024-03-02T02:57:40;11.50;99.90
43049;DHT22;28673;44.412;11.918;2024-03-02T03:00:08;11.50;99.90
43049;DHT22;28673;44.412;11.918;2024-03-02T03:02:40;11.50;99.90
43049;DHT22;28673;44.412;11.918;2024-03-02T03:05:09;11.50;99.90
43049;DHT22;28673;44.412;11.918;2024-03-02T03:07:35;11.50;99.90
43049;DHT22;28673;44.412;11.918;2024-03-02T03:10:02;11.60;99.90
43049;DHT22;28673;44.412;11.918;2024-03-02T03:12:30;11.60;99.90
43049;DHT22;28673;44.412;11.918;2024-03-02T03:14:56;11.50;99.90
43049;DHT22;28673;44.412;11.918;2024-03-02T03:17:23;11.50;99.90
43049;DHT22;28673;44.412;11.918;2024-03-02T03:19:49;11.50;99.90
43049;DHT22;28673;44.412;11.918;2024-03-02T03:22:15;11.50;99.90
43049;DHT22;28673;44.412;11.918;2024-03-02T03:24:41;11.40;99.90
43049;DHT22;28673;44.412;11.918;2024-03-02T03:27:07;11.50;99.90
43049;DHT22;28673;44.412;11.918;2024-03-02T03:29:33;11.40;99.90
43049;DHT22;28673;44.412;11.918;2024-03-02T03:31:58;11.40;99.90
43049;DHT22;28673;44.412;11.918;2024-03-02T03:34:24;11.40;99.90
43049;DHT22;28673;44.412;11.918;2024-03-02T03:36:50;11.40;99.90
43049;DHT22;28673;44.412;11.918;2024-03-02T03:39:15;11.40;99.90
43049;DHT22;28673;44.412;11.918;2024-03-02T03:41:41;11.40;99.90
43049;DHT22;28673;44.412;11.918;2024-03-02T03:44:07;11.40;99.90
43049;DHT22;28673;44.412;11.918;2024-03-02T03:46:32;11.30;99.90
43049;DHT22;28673;44.412;11.918;2024-03-02T03:48:59;11.30;99.90
43049;DHT22;28673;44.412;11.918;2024-03-02T03:51:24;11.40;99.90
43049;DHT22;28673;44.412;11.918;2024-03-02T03:53:50;11.40;99.90
43049;DHT22;28673;44.412;11.918;2024-03-02T03:56:16;11.40;99.90
43049;DHT22;28673;44.412;11.918;2024-03-02T03:58:41;11.40;99.90
43049;DHT22;28673;44.412;11.918;2024-03-02T04:01:07;11.40;99.90
43049;DHT22;28673;44.412;11.918;2024-03-02T04:03:33;11.40;99.90
43049;DHT22;28673;44.412;11.918;2024-03-02T04:05:59;11.40;99.90
43049;DHT22;28673;44.412;11.918;2024-03-02T04:08:25;11.40;99.90
43049;DHT22;28673;44.412;11.918;2024-03-02T04:10:50;11.40;99.90
43049;DHT22;28673;44.412;11.918;2024-03-02T04:13:16;11.30;99.90
43049;DHT22;28673;44.412;11.918;2024-03-02T04:15:42;11.30;99.90
43049;DHT22;28673;44.412;11.918;2024-03-02T04:18:08;11.30;99.90
43049;DHT22;28673;44.412;11.918;2024-03-02T04:20:33;11.30;99.90
43049;DHT22;28673;44.412;11.918;2024-03-02T04:22:59;11.30;99.90
43049;DHT22;28673;44.412;11.918;2024-03-02T04:25:25;11.30;99.90
43049;DHT22;28673;44.412;11.918;2024-03-02T04:27:51;11.30;99.90
43049;DHT22;28673;44.412;11.918;2024-03-02T04:30:16;11.30;99.90
43049;DHT22;28673;44.412;11.918;2024-03-02T04:32:42;11.30;99.90
43049;DHT22;28673;44.412;11.918;2024-03-02T04:35:11;11.30;99.90
43049;DHT22;28673;44.412;11.918;2024-03-02T04:37:38;11.30;99.90
43049;DHT22;28673;44.412;11.918;2024-03-02T04:40:04;11.30;99.90
43049;DHT22;28673;44.412;11.918;2024-03-02T04:42:34;11.30;99.90
43049;DHT22;28673;44.412;11.918;2024-03-02T04:44:59;11.30;99.90
43049;DHT22;28673;44.412;11.918;2024-03-02T04:47:25;11.30;99.90
43049;DHT22;28673;44.412;11.918;2024-03-02T04:49:51;11.30;99.90
43049;DHT22;28673;44.412;11.918;2024-03-02T04:52:17;11.30;99.90
43049;DHT22;28673;44.412;11.918;2024-03-02T04:54:43;11.30;99.90
43049;DHT22;28673;44.412;11.918;2024-03-02T04:57:27;11.30;99.90
43049;DHT22;28673;44.412;11.918;2024-03-02T04:59:53;11.30;99.90
43049;DHT22;28673;44.412;11.918;2024-03-02T05:02:18;11.30;99.90
43049;DHT22;28673;44.412;11.918;2024-03-02T05:04:44;11.30;99.90
43049;DHT22;28673;44.412;11.918;2024-03-02T05:07:10;11.40;99.90
43049;DHT22;28673;44.412;11.918;2024-03-02T05:09:36;11.30;99.90
43049;DHT22;28673;44.412;11.918;2024-03-02T05:12:02;11.30;99.90
43049;DHT22;28673;44.412;11.918;2024-03-02T05:14:37;11.30;99.90
43049;DHT22;28673;44.412;11.918;2024-03-02T05:17:04;11.30;99.90
43049;DHT22;28673;44.412;11.918;2024-03-02T05:19:29;11.30;99.90
43049;DHT22;28673;44.412;11.918;2024-03-02T05:21:55;11.30;99.90
43049;DHT22;28673;44.412;11.918;2024-03-02T05:24:21;11.30;99.90
43049;DHT22;28673;44.412;11.918;2024-03-02T05:26:46;11.30;99.90
43049;DHT22;28673;44.412;11.918;2024-03-02T05:29:12;11.30;99.90
43049;DHT22;28673;44.412;11.918;2024-03-02T05:31:38;11.30;99.90
43049;DHT22;28673;44.412;11.918;2024-03-02T05:34:04;11.30;99.90
43049;DHT22;28673;44.412;11.918;2024-03-02T05:36:31;11.30;99.90
43049;DHT22;28673;44.412;11.918;2024-03-02T05:38:57;11.20;99.90
43049;DHT22;28673;44.412;11.918;2024-03-02T05:41:22;11.20;99.90
43049;DHT22;28673;44.412;11.918;2024-03-02T05:43:48;11.10;99.90
43049;DHT22;28673;44.412;11.918;2024-03-02T05:46:15;11.20;99.90
43049;DHT22;28673;44.412;11.918;2024-03-02T05:48:40;11.10;99.90
43049;DHT22;28673;44.412;11.918;2024-03-02T05:51:06;11.10;99.90
43049;DHT22;28673;44.412;11.918;2024-03-02T05:53:32;11.10;99.90
43049;DHT22;28673;44.412;11.918;2024-03-02T05:55:59;11.10;99.90
43049;DHT22;28673;44.412;11.918;2024-03-02T05:58:25;11.10;99.90
43049;DHT22;28673;44.412;11.918;2024-03-02T06:01:03;11.10;99.90
43049;DHT22;28673;44.412;11.918;2024-03-02T06:03:31;11.10;99.90
43049;DHT22;28673;44.412;11.918;2024-03-02T06:05:56;11.10;99.90
43049;DHT22;28673;44.412;11.918;2024-03-02T06:08:22;11.10;99.90
43049;DHT22;28673;44.412;11.918;2024-03-02T06:10:48;11.10;99.90
43049;DHT22;28673;44.412;11.918;2024-03-02T06:13:14;11.20;99.90
43049;DHT22;28673;44.412;11.918;2024-03-02T06:15:39;11.20;99.90
43049;DHT22;28673;44.412;11.918;2024-03-02T06:18:05;11.20;99.90
43049;DHT22;28673;44.412;11.918;2024-03-02T06:20:33;11.20;99.90
43049;DHT22;28673;44.412;11.918;2024-03-02T06:22:59;11.20;99.90
43049;DHT22;28673;44.412;11.918;2024-03-02T06:25:25;11.30;99.90
43049;DHT22;28673;44.412;11.918;2024-03-02T06:27:50;11.20;99.90
43049;DHT22;28673;44.412;11.918;2024-03-02T06:30:16;11.30;99.90
43049;DHT22;28673;44.412;11.918;2024-03-02T06:32:42;11.30;99.90
43049;DHT22;28673;44.412;11.918;2024-03-02T06:35:09;11.30;99.90
43049;DHT22;28673;44.412;11.918;2024-03-02T06:37:36;11.30;99.90
43049;DHT22;28673;44.412;11.918;2024-03-02T06:40:02;11.40;99.90
43049;DHT22;28673;44.412;11.918;2024-03-02T06:42:28;11.40;99.90
43049;DHT22;28673;44.412;11.918;2024-03-02T06:44:59;11.40;99.90
43049;DHT22;28673;44.412;11.918;2024-03-02T06:47:24;11.50;99.90
43049;DHT22;28673;44.412;11.918;2024-03-02T06:49:50;11.50;99.90
43049;DHT22;28673;44.412;11.918;2024-03-02T06:52:16;11.50;99.90
43049;DHT22;28673;44.412;11.918;2024-03-02T06:54:42;11.60;99.90
43049;DHT22;28673;44.412;11.918;2024-03-02T06:57:08;11.60;99.90
43049;DHT22;28673;44.412;11.918;2024-03-02T06:59:33;11.60;99.90
43049;DHT22;28673;44.412;11.918;2024-03-02T07:01:59;11.70;99.90
43049;DHT22;28673;44.412;11.918;2024-03-02T07:04:25;11.70;99.90
43049;DHT22;28673;44.412;11.918;2024-03-02T07:06:51;11.70;99.90
43049;DHT22;28673;44.412;11.918;2024-03-02T07:09:17;11.80;99.90
43049;DHT22;28673;44.412;11.918;2024-03-02T07:11:43;11.80;99.90
43049;DHT22;28673;44.412;11.918;2024-03-02T07:14:08;11.80;99.90
43049;DHT22;28673;44.412;11.918;2024-03-02T07:16:37;11.80;99.90
43049;DHT22;28673;44.412;11.918;2024-03-02T07:19:04;11.90;99.90
43049;DHT22;28673;44.412;11.918;2024-03-02T07:21:29;11.90;99.90
43049;DHT22;28673;44.412;11.918;2024-03-02T07:23:55;11.90;99.90
43049;DHT22;28673;44.412;11.918;2024-03-02T07:26:21;11.90;99.90
43049;DHT22;28673;44.412;11.918;2024-03-02T07:28:47;12.00;99.90
43049;DHT22;28673;44.412;11.918;2024-03-02T07:31:14;12.00;99.90
43049;DHT22;28673;44.412;11.918;2024-03-02T07:33:39;12.10;99.90
43049;DHT22;28673;44.412;11.918;2024-03-02T07:36:05;12.10;99.90
43049;DHT22;28673;44.412;11.918;2024-03-02T07:38:31;12.10;99.90
43049;DHT22;28673;44.412;11.918;2024-03-02T07:40:59;12.20;99.90
43049;DHT22;28673;44.412;11.918;2024-03-02T07:43:25;12.20;99.90
43049;DHT22;28673;44.412;11.918;2024-03-02T07:45:52;12.30;99.90
43049;DHT22;28673;44.412;11.918;2024-03-02T07:48:18;12.30;99.90
43049;DHT22;28673;44.412;11.918;2024-03-02T07:50:44;12.30;99.90
43049;DHT22;28673;44.412;11.918;2024-03-02T07:53:10;12.40;99.90
43049;DHT22;28673;44.412;11.918;2024-03-02T07:55:36;12.40;99.90
43049;DHT22;28673;44.412;11.918;2024-03-02T07:58:01;12.50;99.90
43049;DHT22;28673;44.412;11.918;2024-03-02T08:00:27;12.50;99.90
43049;DHT22;28673;44.412;11.918;2024-03-02T08:02:54;12.60;99.90
43049;DHT22;28673;44.412;11.918;2024-03-02T08:05:20;12.60;99.90
43049;DHT22;28673;44.412;11.918;2024-03-02T08:07:46;12.70;99.90
43049;DHT22;28673;44.412;11.918;2024-03-02T08:10:12;12.70;99.90
43049;DHT22;28673;44.412;11.918;2024-03-02T08:12:38;12.80;99.90
43049;DHT22;28673;44.412;11.918;2024-03-02T08:15:05;12.80;99.90
43049;DHT22;28673;44.412;11.918;2024-03-02T08:17:30;12.90;99.90
43049;DHT22;28673;44.412;11.918;2024-03-02T08:19:57;13.00;99.90
43049;DHT22;28673;44.412;11.918;2024-03-02T08:22:23;13.00;99.90
43049;DHT22;28673;44.412;11.918;2024-03-02T08:24:51;13.10;99.90
43049;DHT22;28673;44.412;11.918;2024-03-02T08:27:19;13.10;99.90
43049;DHT22;28673;44.412;11.918;2024-03-02T08:33:32;13.20;99.90
43049;DHT22;28673;44.412;11.918;2024-03-02T08:35:59;13.30;99.90
43049;DHT22;28673;44.412;11.918;2024-03-02T08:38:24;13.40;99.90
43049;DHT22;28673;44.412;11.918;2024-03-02T08:40:50;13.40;99.90
43049;DHT22;28673;44.412;11.918;2024-03-02T08:43:17;13.50;99.90
43049;DHT22;28673;44.412;11.918;2024-03-02T08:45:43;13.50;99.90
43049;DHT22;28673;44.412;11.918;2024-03-02T08:48:09;13.50;99.90
43049;DHT22;28673;44.412;11.918;2024-03-02T08:50:36;13.60;99.90
43049;DHT22;28673;44.412;11.918;2024-03-02T08:53:05;13.60;99.90
43049;DHT22;28673;44.412;11.918;2024-03-02T08:55:31;13.70;99.90
43049;DHT22;28673;44.412;11.918;2024-03-02T08:57:57;13.70;99.90
43049;DHT22;28673;44.412;11.918;2024-03-02T09:00:23;13.70;99.90
43049;DHT22;28673;44.412;11.918;2024-03-02T09:02:50;13.80;99.90
43049;DHT22;28673;44.412;11.918;2024-03-02T09:05:16;13.80;99.90
43049;DHT22;28673;44.412;11.918;2024-03-02T09:07:41;13.80;99.90
43049;DHT22;28673;44.412;11.918;2024-03-02T09:10:08;13.90;99.90
43049;DHT22;28673;44.412;11.918;2024-03-02T09:12:34;13.90;99.90
43049;DHT22;28673;44.412;11.918;2024-03-02T09:15:01;13.90;99.90
43049;DHT22;28673;44.412;11.918;2024-03-02T09:17:27;14.00;99.90
43049;DHT22;28673;44.412;11.918;2024-03-02T09:19:53;14.00;99.90
43049;DHT22;28673;44.412;11.918;2024-03-02T09:22:19;14.10;99.90
43049;DHT22;28673;44.412;11.918;2024-03-02T09:24:45;14.20;99.90
43049;DHT22;28673;44.412;11.918;2024-03-02T09:27:11;14.30;99.90
43049;DHT22;28673;44.412;11.918;2024-03-02T09:29:37;14.30;99.90
43049;DHT22;28673;44.412;11.918;2024-03-02T09:32:04;14.40;99.90
43049;DHT22;28673;44.412;11.918;2024-03-02T09:34:30;14.50;99.90
43049;DHT22;28673;44.412;11.918;2024-03-02T09:36:56;14.50;99.90
43049;DHT22;28673;44.412;11.918;2024-03-02T09:39:22;14.60;99.90
43049;DHT22;28673;44.412;11.918;2024-03-02T09:41:48;14.70;99.90
43049;DHT22;28673;44.412;11.918;2024-03-02T09:44:14;14.80;99.90
43049;DHT22;28673;44.412;11.918;2024-03-02T09:46:40;14.90;99.90
43049;DHT22;28673;44.412;11.918;2024-03-02T09:49:06;15.00;99.90
43049;DHT22;28673;44.412;11.918;2024-03-02T09:51:32;15.10;99.90
43049;DHT22;28673;44.412;11.918;2024-03-02T09:53:57;15.10;99.90
43049;DHT22;28673;44.412;11.918;2024-03-02T09:56:26;15.20;99.90
43049;DHT22;28673;44.412;11.918;2024-03-02T09:58:52;15.30;99.90
43049;DHT22;28673;44.412;11.918;2024-03-02T10:01:17;15.40;99.90
43049;DHT22;28673;44.412;11.918;2024-03-02T10:03:44;15.50;99.90
43049;DHT22;28673;44.412;11.918;2024-03-02T10:06:25;15.70;99.90
43049;DHT22;28673;44.412;11.918;2024-03-02T10:08:51;15.80;99.90
43049;DHT22;28673;44.412;11.918;2024-03-02T10:11:34;15.90;99.90
43049;DHT22;28673;44.412;11.918;2024-03-02T10:14:12;16.00;99.90
43049;DHT22;28673;44.412;11.918;2024-03-02T10:16:43;16.10;99.90
43049;DHT22;28673;44.412;11.918;2024-03-02T10:19:19;16.20;99.90
43049;DHT22;28673;44.412;11.918;2024-03-02T10:21:50;16.20;99.90
43049;DHT22;28673;44.412;11.918;2024-03-02T10:24:22;16.20;99.90
43049;DHT22;28673;44.412;11.918;2024-03-02T10:26:48;16.20;99.90
43049;DHT22;28673;44.412;11.918;2024-03-02T10:29:15;16.20;99.90
43049;DHT22;28673;44.412;11.918;2024-03-02T10:31:43;16.20;99.90
43049;DHT22;28673;44.412;11.918;2024-03-02T10:34:10;16.10;99.90
43049;DHT22;28673;44.412;11.918;2024-03-02T10:36:37;16.20;99.90
43049;DHT22;28673;44.412;11.918;2024-03-02T10:39:07;16.20;99.90
43049;DHT22;28673;44.412;11.918;2024-03-02T10:41:35;16.30;99.90
43049;DHT22;28673;44.412;11.918;2024-03-02T10:44:08;16.30;99.90
43049;DHT22;28673;44.412;11.918;2024-03-02T10:46:37;16.40;99.90
43049;DHT22;28673;44.412;11.918;2024-03-02T10:49:04;16.50;99.90
43049;DHT22;28673;44.412;11.918;2024-03-02T10:51:32;16.50;99.90
43049;DHT22;28673;44.412;11.918;2024-03-02T10:54:02;16.60;99.90
43049;DHT22;28673;44.412;11.918;2024-03-02T10:56:31;16.60;99.90
43049;DHT22;28673;44.412;11.918;2024-03-02T11:01:25;16.60;99.90
43049;DHT22;28673;44.412;11.918;2024-03-02T11:03:52;16.70;99.90
43049;DHT22;28673;44.412;11.918;2024-03-02T11:06:19;16.70;99.90
43049;DHT22;28673;44.412;11.918;2024-03-02T11:08:47;16.80;99.90
43049;DHT22;28673;44.412;11.918;2024-03-02T11:11:22;17.00;99.90
43049;DHT22;28673;44.412;11.918;2024-03-02T11:13:53;17.20;99.90
43049;DHT22;28673;44.412;11.918;2024-03-02T11:16:34;17.30;99.90
43049;DHT22;28673;44.412;11.918;2024-03-02T11:19:12;17.30;99.90
43049;DHT22;28673;44.412;11.918;2024-03-02T11:21:38;17.30;99.90
43049;DHT22;28673;44.412;11.918;2024-03-02T11:26:53;17.20;99.90
43049;DHT22;28673;44.412;11.918;2024-03-02T11:32:13;17.10;99.90
43049;DHT22;28673;44.412;11.918;2024-03-02T11:34:41;17.00;99.90
43049;DHT22;28673;44.412;11.918;2024-03-02T11:37:19;16.90;99.90
43049;DHT22;28673;44.412;11.918;2024-03-02T11:39:49;16.90;99.90
43049;DHT22;28673;44.412;11.918;2024-03-02T11:42:16;16.80;99.90
43049;DHT22;28673;44.412;11.918;2024-03-02T11:44:46;16.70;99.90
43049;DHT22;28673;44.412;11.918;2024-03-02T11:47:15;16.70;99.90
43049;DHT22;28673;44.412;11.918;2024-03-02T11:49:43;16.70;99.90
43049;DHT22;28673;44.412;11.918;2024-03-02T11:52:15;16.70;99.90
43049;DHT22;28673;44.412;11.918;2024-03-02T11:54:44;16.90;99.90
43049;DHT22;28673;44.412;11.918;2024-03-02T11:57:18;16.90;99.90
43049;DHT22;28673;44.412;11.918;2024-03-02T11:59:45;17.00;99.90
43049;DHT22;28673;44.412;11.918;2024-03-02T12:02:20;17.00;99.90
43049;DHT22;28673;44.412;11.918;2024-03-02T12:04:47;17.10;99.90
43049;DHT22;28673;44.412;11.918;2024-03-02T12:07:20;17.10;99.90
43049;DHT22;28673;44.412;11.918;2024-03-02T12:09:59;17.20;99.90
43049;DHT22;28673;44.412;11.918;2024-03-02T12:12:26;17.20;99.90
43049;DHT22;28673;44.412;11.918;2024-03-02T12:14:53;17.50;99.90
43049;DHT22;28673;44.412;11.918;2024-03-02T12:17:21;17.70;99.90
43049;DHT22;28673;44.412;11.918;2024-03-02T12:19:47;18.00;99.90
43049;DHT22;28673;44.412;11.918;2024-03-02T12:22:14;18.30;99.90
43049;DHT22;28673;44.412;11.918;2024-03-02T12:24:41;18.50;99.90
43049;DHT22;28673;44.412;11.918;2024-03-02T12:27:07;18.60;99.90
43049;DHT22;28673;44.412;11.918;2024-03-02T12:29:34;18.70;99.90
43049;DHT22;28673;44.412;11.918;2024-03-02T12:32:00;18.70;99.90
43049;DHT22;28673;44.412;11.918;2024-03-02T12:34:28;18.70;99.90
43049;DHT22;28673;44.412;11.918;2024-03-02T12:36:54;18.60;99.90
43049;DHT22;28673;44.412;11.918;2024-03-02T12:39:19;18.60;99.90
43049;DHT22;28673;44.412;11.918;2024-03-02T12:41:50;18.60;99.90
43049;DHT22;28673;44.412;11.918;2024-03-02T12:44:19;18.50;99.90
43049;DHT22;28673;44.412;11.918;2024-03-02T12:46:46;18.40;99.90
43049;DHT22;28673;44.412;11.918;2024-03-02T12:49:14;18.40;99.90
43049;DHT22;28673;44.412;11.918;2024-03-02T12:51:42;18.40;99.90
43049;DHT22;28673;44.412;11.918;2024-03-02T12:54:09;18.40;99.90
43049;DHT22;28673;44.412;11.918;2024-03-02T12:56:38;18.60;99.90
43049;DHT22;28673;44.412;11.918;2024-03-02T12:59:05;18.80;99.90
43049;DHT22;28673;44.412;11.918;2024-03-02T13:01:31;18.90;99.90
43049;DHT22;28673;44.412;11.918;2024-03-02T13:03:58;18.90;99.90
43049;DHT22;28673;44.412;11.918;2024-03-02T13:06:24;19.00;99.90
43049;DHT22;28673;44.412;11.918;2024-03-02T13:08:53;19.30;99.90
43049;DHT22;28673;44.412;11.918;2024-03-02T13:11:20;19.50;99.90
43049;DHT22;28673;44.412;11.918;2024-03-02T13:13:46;19.50;99.90
43049;DHT22;28673;44.412;11.918;2024-03-02T13:16:12;19.70;99.90
43049;DHT22;28673;44.412;11.918;2024-03-02T13:18:39;19.70;99.90
43049;DHT22;28673;44.412;11.918;2024-03-02T13:21:06;19.60;99.90
43049;DHT22;28673;44.412;11.918;2024-03-02T13:23:31;19.60;99.90
43049;DHT22;28673;44.412;11.918;2024-03-02T13:25:58;19.60;99.90
43049;DHT22;28673;44.412;11.918;2024-03-02T13:28:25;19.60;99.90
43049;DHT22;28673;44.412;11.918;2024-03-02T13:30:51;19.60;99.90
43049;DHT22;28673;44.412;11.918;2024-03-02T13:33:17;19.70;99.90
43049;DHT22;28673;44.412;11.918;2024-03-02T13:35:51;19.70;99.90
43049;DHT22;28673;44.412;11.918;2024-03-02T13:38:19;19.80;99.90
43049;DHT22;28673;44.412;11.918;2024-03-02T13:40:45;19.90;99.90
43049;DHT22;28673;44.412;11.918;2024-03-02T13:43:12;19.90;99.90
43049;DHT22;28673;44.412;11.918;2024-03-02T13:45:39;19.90;99.90
43049;DHT22;28673;44.412;11.918;2024-03-02T13:48:05;19.90;99.90
43049;DHT22;28673;44.412;11.918;2024-03-02T13:50:31;19.80;99.90
43049;DHT22;28673;44.412;11.918;2024-03-02T13:52:57;19.80;99.90
43049;DHT22;28673;44.412;11.918;2024-03-02T13:55:23;19.70;99.90
43049;DHT22;28673;44.412;11.918;2024-03-02T13:57:49;19.60;99.90
43049;DHT22;28673;44.412;11.918;2024-03-02T14:00:18;19.50;99.90
43049;DHT22;28673;44.412;11.918;2024-03-02T14:02:45;19.60;99.90
43049;DHT22;28673;44.412;11.918;2024-03-02T14:05:11;19.70;99.90
43049;DHT22;28673;44.412;11.918;2024-03-02T14:07:38;19.70;99.90
43049;DHT22;28673;44.412;11.918;2024-03-02T14:10:04;19.80;99.90
43049;DHT22;28673;44.412;11.918;2024-03-02T14:12:30;20.00;99.90
43049;DHT22;28673;44.412;11.918;2024-03-02T14:14:56;20.00;99.90
43049;DHT22;28673;44.412;11.918;2024-03-02T14:17:26;19.90;99.90
43049;DHT22;28673;44.412;11.918;2024-03-02T14:19:52;19.50;99.90
43049;DHT22;28673;44.412;11.918;2024-03-02T14:22:19;19.30;99.90
43049;DHT22;28673;44.412;11.918;2024-03-02T14:24:45;19.20;99.90
43049;DHT22;28673;44.412;11.918;2024-03-02T14:27:12;19.10;99.90
43049;DHT22;28673;44.412;11.918;2024-03-02T14:29:39;19.00;99.90
43049;DHT22;28673;44.412;11.918;2024-03-02T14:32:06;18.90;99.90
43049;DHT22;28673;44.412;11.918;2024-03-02T14:34:32;18.80;99.90
43049;DHT22;28673;44.412;11.918;2024-03-02T14:36:59;18.70;99.90
43049;DHT22;28673;44.412;11.918;2024-03-02T14:39:25;18.50;99.90
43049;DHT22;28673;44.412;11.918;2024-03-02T14:41:51;18.40;99.90
43049;DHT22;28673;44.412;11.918;2024-03-02T14:44:17;18.50;99.90
43049;DHT22;28673;44.412;11.918;2024-03-02T14:46:46;18.60;99.90
43049;DHT22;28673;44.412;11.918;2024-03-02T14:49:12;18.80;99.90
43049;DHT22;28673;44.412;11.918;2024-03-02T14:51:38;18.90;99.90
43049;DHT22;28673;44.412;11.918;2024-03-02T14:54:04;19.00;99.90
43049;DHT22;28673;44.412;11.918;2024-03-02T14:56:30;19.00;99.90
43049;DHT22;28673;44.412;11.918;2024-03-02T14:58:56;19.00;99.90
43049;DHT22;28673;44.412;11.918;2024-03-02T15:01:22;19.00;99.90
43049;DHT22;28673;44.412;11.918;2024-03-02T15:03:50;18.90;99.90
43049;DHT22;28673;44.412;11.918;2024-03-02T15:06:16;18.90;99.90
43049;DHT22;28673;44.412;11.918;2024-03-02T15:08:43;18.80;99.90
43049;DHT22;28673;44.412;11.918;2024-03-02T15:11:09;18.70;99.90
43049;DHT22;28673;44.412;11.918;2024-03-02T15:13:36;18.70;99.90
43049;DHT22;28673;44.412;11.918;2024-03-02T15:16:02;18.50;99.90
43049;DHT22;28673;44.412;11.918;2024-03-02T15:18:28;18.50;99.90
43049;DHT22;28673;44.412;11.918;2024-03-02T15:20:53;18.50;99.90
43049;DHT22;28673;44.412;11.918;2024-03-02T15:23:20;18.50;99.90
43049;DHT22;28673;44.412;11.918;2024-03-02T15:25:45;18.50;99.90
43049;DHT22;28673;44.412;11.918;2024-03-02T15:28:11;18.50;99.90